Main page
Satellite images 15-day forecastsClimateMarine weather Cyclones Lightning AirportsFAQ Newsletter About
Weather : Europe Africa North America South America Asia Australia-Oceania Others
Languages Contact

Buenos Aires, Argentina

Aeroparque Jorge Newbery

latitude: 34-34S, longitude: 058-25W, elevation: 6 m


METAR: SABE 190200Z 00000KT CAVOK 14/10 Q1016
short-TAF: out of date (13828 hours)
long-TAF: SABE 182300Z 1900/1924 VRB03KT CAVOK TX21/1918Z TN10/1909Z BECMG 1910/1912 18005KT BECMG 1915/1917 14010KT

Time: 23:37 (02:37 UTC)

Current weather observation

The report was made 37 minutes ago, at 02:00 UTC  
Wind calm
Temperature 14°C
Humidity 77%
Pressure 1016 hPa
Visibility 10 km or more
no clouds below 1500 m and no cumulonimbus

Change units

Forecast

The report was made 2 hours and 37 minutes ago, at 00:00 UTC  
Forecast valid from 19 at 00 UTC to 19 at 24 UTC
Wind 03 kt from variable directions
Visibility 10 km or more
no clouds below 1500 m and no cumulonimbus
Becoming
from 19 at 10 UTC to 19 at 12 UTC
Wind 05 kt from south
Becoming
from 19 at 15 UTC to 19 at 17 UTC
Wind 10 kt from southeast
The information on this site is subject to a disclaimer
Weather : Europe Africa North America South America Asia Australia-Oceania Others
Satellite images 15-day forecastsClimateMarine weather Cyclones Lightning AirportsFAQ Languages Contact Newsletter About